Skip Navigation Links
NOAA logo - Click to go to the NOAA homepage
NOAA's National Weather Service
Alaska Aviation Weather Unit
  NWS logo - Click to go to the NWS homepage
Left Navbar Graphic     03 AKDT = 11 GMT

   
NOAA is celebrating 200 years of science, service, and stewardship. Visit the NOAA 200th celebration Web site to learn more.
USA.gov is the U.S. Government's official Web portal to all Federal, state and local government Web resources and services.
Facebook
NWS on Facebook

AAWU Home :: Display TAF Add Bookmark
TAF PADQ 290522Z 2906/3006 29008KT P6SM SKC=

METAR PADQ 290553Z 29012KT 10SM CLR M01/M06 A2953= METAR PADQ 290653Z 30007KT 10SM CLR M01/M08 A2955= METAR PADQ 290753Z 30007KT 10SM CLR M02/M09 A2956= METAR PADQ 290853Z 29012G17KT 10SM CLR M02/M09 A2957= METAR PADQ 290953Z 29005G15KT 10SM CLR M02/M10 A2957= METAR PADQ 291053Z 30007KT 10SM CLR M02/M09 A2958=
 Alaska TAF Map

NOAA's National Weather Service
Alaska Aviation Weather Unit
6930 Sand Lake Road
Anchorage, AK 99502-1845
Disclaimer
Credits
Glossary
Privacy Policy
About Us
Career Opportunities
Contact AAWU Internet Services Site last modified: April, 17th 2012